Time;durP1;ratioP1;P1;durP2;ratioP2;P2;SDS_P1;SDS_P2;PMS_P1;PMS_P2;Temp;Humidity;BMP_temperature;BMP_pressure;BME280_temperature;BME280_humidity;BME280_pressure;Samples;Min_cycle;Max_cycle;Signal;HPM_P1;HPM_P2
2022/11/23 06:11:34;;;;;;;9.17;3.67;;;;;;;6.06;74.80;96819.31;6145035;23;20683;31
2022/11/23 06:14:00;;;;;;;8.55;4.10;;;;;;;5.84;76.80;96826.97;6119591;23;20096;-67
2022/11/23 06:16:25;;;;;;;7.88;3.40;;;;;;;5.85;78.59;96842.47;6098657;23;20033;-67
2022/11/23 06:18:51;;;;;;;8.25;3.83;;;;;;;5.69;77.02;96839.31;6125757;23;20013;-67
2022/11/23 06:21:16;;;;;;;8.63;3.80;;;;;;;5.58;77.80;96839.22;6124931;23;20021;-66
2022/11/23 06:23:42;;;;;;;9.38;3.80;;;;;;;5.42;77.90;96845.47;6124828;23;20066;-65
2022/11/23 06:26:07;;;;;;;8.88;3.40;;;;;;;5.34;78.11;96850.41;6123714;23;20033;-64
2022/11/23 06:28:35;;;;;;;11.57;3.60;;;;;;;5.20;78.46;96845.31;6124524;23;20010;-65
2022/11/23 06:31:01;;;;;;;8.90;3.47;;;;;;;5.14;78.82;96853.53;6123190;23;20436;-66
2022/11/23 06:33:26;;;;;;;7.15;3.30;;;;;;;5.05;79.08;96851.53;6124256;23;19998;-66
2022/11/23 06:35:55;;;;;;;9.32;3.90;;;;;;;5.00;79.91;96855.28;6123723;23;20016;-66
2022/11/23 06:38:21;;;;;;;8.93;3.55;;;;;;;4.96;79.59;96856.44;6073938;23;20502;-66
2022/11/23 06:40:46;;;;;;;9.13;3.30;;;;;;;4.92;79.85;96857.59;6098932;23;20001;-67
2022/11/23 06:43:11;;;;;;;7.82;3.30;;;;;;;4.91;80.08;96865.47;6091322;23;20006;-67
2022/11/23 06:45:37;;;;;;;8.77;3.83;;;;;;;4.89;80.76;96862.16;6098530;23;20006;-67
2022/11/23 06:48:02;;;;;;;9.35;3.95;;;;;;;4.87;80.27;96875.22;6124359;23;20339;-67
2022/11/23 06:50:28;;;;;;;10.90;4.03;;;;;;;4.85;79.79;96871.06;6122367;23;20097;-69
2022/11/23 06:52:56;;;;;;;9.45;3.83;;;;;;;4.83;80.25;96875.53;6096405;23;20193;-67
2022/11/23 06:55:23;;;;;;;7.95;3.60;;;;;;;4.80;80.58;96868.78;6098632;23;20089;-67
2022/11/23 06:57:48;;;;;;;9.27;3.90;;;;;;;4.80;80.77;96881.78;6075541;23;19998;-67
2022/11/23 07:00:14;;;;;;;11.15;4.25;;;;;;;4.79;80.76;96882.72;6099029;23;20016;-67
2022/11/23 07:02:39;;;;;;;10.13;4.20;;;;;;;4.75;80.65;96879.50;6124164;23;20012;-67
2022/11/23 07:05:05;;;;;;;9.57;3.50;;;;;;;4.79;81.30;96880.13;6124366;23;20013;-67
2022/11/23 07:07:31;;;;;;;10.18;3.97;;;;;;;4.80;81.16;96883.53;6099148;23;20057;-67
2022/11/23 07:09:56;;;;;;;8.45;3.35;;;;;;;4.81;81.40;96888.63;6124955;23;20021;-67
2022/11/23 07:12:21;;;;;;;8.63;3.83;;;;;;;4.81;81.11;96890.38;6099249;23;20002;-67
2022/11/23 07:14:47;;;;;;;10.13;4.22;;;;;;;4.85;81.04;96897.03;6097748;23;20321;-67
2022/11/23 07:17:12;;;;;;;8.38;3.95;;;;;;;4.86;81.13;96896.13;6123577;23;20016;-67
2022/11/23 07:19:38;;;;;;;9.32;4.18;;;;;;;4.87;81.41;96906.41;6123413;23;20033;-69
2022/11/23 07:22:03;;;;;;;8.30;3.83;;;;;;;4.89;81.14;96898.53;6124057;23;20010;-67
2022/11/23 07:24:28;;;;;;;10.98;3.83;;;;;;;4.87;81.10;96896.00;6124208;23;20025;-67
2022/11/23 07:26:54;;;;;;;8.38;4.35;;;;;;;4.91;81.23;96902.66;6124540;23;20008;-67
2022/11/23 07:29:19;;;;;;;10.85;4.65;;;;;;;4.91;81.17;96900.06;6073238;23;20055;-68
2022/11/23 07:31:45;;;;;;;9.35;4.07;;;;;;;4.95;81.26;96903.28;6097735;23;20006;-67
2022/11/23 07:34:10;;;;;;;8.88;4.10;;;;;;;4.97;80.53;96904.88;6123138;23;20009;-68
2022/11/23 07:36:35;;;;;;;10.85;4.20;;;;;;;4.98;80.54;96905.69;6098941;23;20056;-68
2022/11/23 07:39:01;;;;;;;9.93;4.88;;;;;;;5.03;80.94;96918.41;6124314;23;20009;-66
2022/11/23 07:41:26;;;;;;;10.27;4.75;;;;;;;5.06;81.20;96910.38;6124954;23;20074;-66
2022/11/23 07:43:52;;;;;;;9.52;4.20;;;;;;;5.09;81.38;96915.38;6123398;23;20006;-65
2022/11/23 07:46:17;;;;;;;10.35;4.45;;;;;;;5.11;80.94;96916.94;6124226;23;20005;-66
2022/11/23 07:48:42;;;;;;;11.32;5.40;;;;;;;5.15;81.29;96913.19;6099078;23;20016;-66
2022/11/23 07:51:08;;;;;;;9.90;5.20;;;;;;;5.18;81.12;96914.75;6124450;23;20002;-66
2022/11/23 07:53:35;;;;;;;9.82;4.97;;;;;;;5.20;80.89;96912.91;6123172;23;20060;-66
2022/11/23 07:56:00;;;;;;;11.40;5.30;;;;;;;5.23;80.87;96929.13;6097947;23;20061;-65
2022/11/23 07:58:25;;;;;;;9.73;4.38;;;;;;;5.26;80.76;96928.06;6123869;23;20376;-66
2022/11/23 08:00:51;;;;;;;10.82;4.40;;;;;;;5.29;81.08;96933.06;6097530;23;20009;-65
2022/11/23 08:03:16;;;;;;;9.82;4.30;;;;;;;5.31;80.98;96926.00;6098018;23;20012;-65
2022/11/23 08:05:42;;;;;;;9.90;4.20;;;;;;;5.33;80.80;96925.88;6097543;23;20005;-66
2022/11/23 08:08:07;;;;;;;9.95;3.70;;;;;;;5.38;80.50;96929.84;6098259;23;20320;-66
2022/11/23 08:10:33;;;;;;;7.32;3.47;;;;;;;5.40;80.79;96925.38;6124837;23;20012;-66
2022/11/23 08:13:03;;;;;;;8.57;3.83;;;;;;;5.43;80.44;96929.53;6123496;23;20060;-65
2022/11/23 08:15:29;;;;;;;9.88;3.50;;;;;;;5.46;80.12;96922.34;6099606;23;20002;-66
2022/11/23 08:17:58;;;;;;;8.43;3.25;;;;;;;5.50;80.00;96924.75;6124244;23;20020;-66
2022/11/23 08:20:24;;;;;;;7.65;3.25;;;;;;;5.54;79.46;96924.44;6099920;23;20020;-66
2022/11/23 08:22:49;;;;;;;7.18;2.78;;;;;;;5.57;79.73;96925.97;6123130;23;19997;-66
2022/11/23 08:25:14;;;;;;;6.88;2.97;;;;;;;5.61;79.19;96930.03;6098337;23;20010;-66
2022/11/23 08:27:40;;;;;;;9.25;3.72;;;;;;;5.65;79.13;96926.31;6123722;23;20143;-66
2022/11/23 08:30:06;;;;;;;10.98;4.03;;;;;;;5.68;78.79;96931.28;6124299;23;20339;-65
2022/11/23 08:32:31;;;;;;;10.10;3.70;;;;;;;5.72;78.67;96930.16;6098363;23;20085;-66
2022/11/23 08:34:56;;;;;;;8.38;3.60;;;;;;;5.78;78.74;96928.88;6123522;23;20014;-66
2022/11/23 08:37:22;;;;;;;7.78;3.33;;;;;;;5.80;78.25;96919.19;6124320;23;20424;-66
2022/11/23 08:39:47;;;;;;;9.60;3.95;;;;;;;5.87;78.20;96928.25;6123597;23;20009;-66
2022/11/23 08:42:12;;;;;;;9.05;4.07;;;;;;;5.90;77.77;96920.22;6098320;23;20014;-65
2022/11/23 08:44:38;;;;;;;7.95;3.53;;;;;;;5.94;77.82;96929.50;6123883;23;20006;-66
2022/11/23 08:47:03;;;;;;;10.43;3.53;;;;;;;6.00;77.98;96918.66;6124817;23;20416;-66
2022/11/23 08:49:29;;;;;;;6.97;3.33;;;;;;;6.04;77.58;96919.28;6124680;23;20002;-66
2022/11/23 08:51:54;;;;;;;8.20;3.85;;;;;;;6.09;77.17;96918.03;6124557;23;20440;-66
2022/11/23 08:54:22;;;;;;;7.65;3.38;;;;;;;6.14;76.93;96920.28;6123359;23;20005;-65
2022/11/23 08:56:47;;;;;;;7.72;3.20;;;;;;;6.19;76.88;96920.78;6124425;23;19998;-65
2022/11/23 08:59:12;;;;;;;8.05;3.35;;;;;;;6.25;76.73;96922.94;6123229;23;20065;-66
2022/11/23 09:01:38;;;;;;;9.85;3.60;;;;;;;6.34;76.79;96922.31;6123536;23;20009;-65
2022/11/23 09:04:03;;;;;;;7.40;3.05;;;;;;;6.40;76.32;96915.81;6124113;23;20014;-66
2022/11/23 09:06:32;;;;;;;8.70;3.20;;;;;;;6.50;76.06;96915.97;6122916;23;20085;-66
2022/11/23 09:08:57;;;;;;;8.40;3.03;;;;;;;6.58;75.96;96926.69;6124380;23;20009;-66
2022/11/23 09:11:24;;;;;;;7.78;2.92;;;;;;;6.64;75.92;96919.25;6123894;23;20339;-64
2022/11/23 09:13:49;;;;;;;8.02;3.08;;;;;;;6.71;75.21;96911.81;6123906;23;20005;-66
2022/11/23 09:16:15;;;;;;;7.57;3.10;;;;;;;6.78;75.39;96920.84;6098647;23;20044;-66
2022/11/23 09:18:40;;;;;;;8.38;3.38;;;;;;;6.84;74.76;96915.16;6098205;23;20073;-65
2022/11/23 09:21:06;;;;;;;9.07;3.17;;;;;;;6.90;74.88;96914.72;6098655;23;20010;-65
2022/11/23 09:23:31;;;;;;;6.93;3.10;;;;;;;7.00;74.51;96914.03;6123537;23;20010;-65
2022/11/23 09:26:01;;;;;;;7.82;3.00;;;;;;;7.09;74.19;96918.59;6124141;23;20502;-65
2022/11/23 09:28:29;;;;;;;9.75;3.25;;;;;;;7.16;74.07;96909.34;6123957;23;20009;-65
2022/11/23 09:30:55;;;;;;;8.02;2.97;;;;;;;7.22;73.98;96910.66;6098015;23;20410;-65
2022/11/23 09:33:21;;;;;;;8.98;3.22;;;;;;;7.30;73.60;96910.91;6097902;23;20006;-65
2022/11/23 09:35:46;;;;;;;10.05;3.60;;;;;;;7.41;73.09;96918.75;6074401;23;20009;-66
2022/11/23 09:38:11;;;;;;;9.30;4.25;;;;;;;7.45;72.71;96919.34;6124321;23;20048;-66
2022/11/23 09:40:39;;;;;;;9.40;3.78;;;;;;;7.53;72.72;96911.75;6098926;23;20044;-66
2022/11/23 09:43:34;;;;;;;7.80;3.67;;;;;;;7.64;72.29;96918.75;6098506;23;20017;-67
2022/11/23 09:46:13;;;;;;;9.75;3.47;;;;;;;7.74;72.21;96919.69;6125537;23;20309;-65
2022/11/23 09:48:47;;;;;;;8.60;3.60;;;;;;;7.84;72.54;96916.28;6077331;23;19994;-65
2022/11/23 09:51:17;;;;;;;7.63;3.72;;;;;;;7.94;72.11;96907.72;6101385;23;20002;-67
2022/11/23 09:53:49;;;;;;;8.80;3.60;;;;;;;8.04;71.72;96908.66;6125573;23;20002;-65
2022/11/23 09:56:17;;;;;;;8.57;3.58;;;;;;;8.13;71.47;96907.09;6099829;23;20443;-65
2022/11/23 09:58:43;;;;;;;8.82;3.95;;;;;;;8.24;71.30;96912.31;6076094;23;20043;-66
2022/11/23 10:01:13;;;;;;;9.00;4.40;;;;;;;8.34;70.90;96902.78;6125156;23;20056;-65
2022/11/23 10:03:39;;;;;;;8.60;3.67;;;;;;;8.44;70.71;96905.53;6075176;23;20431;-65
2022/11/23 10:06:15;;;;;;;7.40;3.03;;;;;;;8.54;70.34;96907.25;6099434;23;20062;-65
2022/11/23 10:08:44;;;;;;;8.48;3.65;;;;;;;8.66;69.88;96894.97;6099805;23;20454;-65
2022/11/23 10:11:28;;;;;;;9.02;3.47;;;;;;;8.76;68.96;96903.72;6099672;23;20028;-66
2022/11/23 10:14:20;;;;;;;7.35;3.45;;;;;;;8.94;68.78;96895.31;6125199;23;20009;-66
2022/11/23 10:16:48;;;;;;;;;;;;;;;9.10;68.53;96895.72;6101634;23;20006;-65
2022/11/23 10:19:29;;;;;;;8.50;3.55;;;;;;;9.26;68.11;96893.47;6124302;23;19913;-64
2022/11/23 10:22:11;;;;;;;6.95;3.60;;;;;;;9.42;67.65;96884.31;6124915;23;20025;-66
2022/11/23 10:24:38;;;;;;;6.82;2.92;;;;;;;9.57;67.30;96888.28;6099534;23;20312;-67
2022/11/23 10:27:10;;;;;;;8.77;3.45;;;;;;;9.70;66.49;96883.66;6075577;23;20422;-65
2022/11/23 10:29:36;;;;;;;8.52;3.67;;;;;;;9.78;66.55;96875.13;6076010;23;20444;-66
2022/11/23 10:32:03;;;;;;;11.57;4.45;;;;;;;9.85;66.43;96880.66;6074974;23;20053;-66
2022/11/23 10:34:38;;;;;;;7.78;3.50;;;;;;;9.88;66.04;96880.41;6099343;23;20009;-66
2022/11/23 10:37:10;;;;;;;7.70;3.17;;;;;;;9.89;65.59;96872.41;6125461;23;20021;-66
2022/11/23 10:39:35;;;;;;;7.32;3.10;;;;;;;9.96;65.90;96867.44;6075873;23;20486;-66
2022/11/23 10:42:03;;;;;;;9.30;3.60;;;;;;;10.04;65.48;96870.22;6124870;23;19998;-66
2022/11/23 10:44:31;;;;;;;9.00;3.08;;;;;;;10.11;64.69;96863.47;6075506;23;20006;-65
2022/11/23 10:46:57;;;;;;;8.40;3.05;;;;;;;10.23;64.31;96859.78;6075720;23;19998;-66
2022/11/23 10:49:28;;;;;;;7.68;2.88;;;;;;;10.31;64.32;96863.56;6099363;23;20495;-66
2022/11/23 10:52:04;;;;;;;7.00;3.08;;;;;;;10.39;63.90;96861.06;6076283;23;20016;-66
2022/11/23 10:54:29;;;;;;;7.70;3.08;;;;;;;10.47;63.11;96870.88;6074926;23;20010;-66
2022/11/23 10:56:55;;;;;;;7.72;3.45;;;;;;;10.51;63.32;96862.59;6125236;23;20032;-66
2022/11/23 10:59:37;;;;;;;8.00;3.25;;;;;;;10.58;62.77;96868.94;6076152;23;20072;-67
2022/11/23 11:02:02;;;;;;;;;;;;;;;10.71;62.39;96862.63;6098811;23;20001;-66
2022/11/23 11:04:28;;;;;;;7.40;3.13;;;;;;;10.86;62.39;96861.22;6124598;23;19905;-66
2022/11/23 11:07:09;;;;;;;10.98;4.35;;;;;;;11.19;61.01;96862.56;6125261;23;20016;-68
2022/11/23 11:09:34;;;;;;;8.40;2.90;;;;;;;11.41;60.71;96856.94;6099455;23;20009;-67
2022/11/23 11:11:59;;;;;;;5.22;2.20;;;;;;;11.64;60.44;96857.44;6098851;23;20458;-66
2022/11/23 11:14:26;;;;;;;6.38;2.90;;;;;;;11.88;59.38;96853.50;6097808;23;20006;-66
2022/11/23 11:16:53;;;;;;;6.53;2.53;;;;;;;12.07;58.80;96858.63;6122124;23;20010;-67
2022/11/23 11:19:25;;;;;;;7.43;2.40;;;;;;;12.26;57.54;96851.63;6075301;23;20081;-68
2022/11/23 11:21:50;;;;;;;7.00;2.22;;;;;;;12.40;57.10;96853.72;6098425;23;20088;-68
2022/11/23 11:24:18;;;;;;;8.95;2.67;;;;;;;12.49;57.00;96846.72;6124200;23;20012;-68
2022/11/23 11:27:01;;;;;;;6.70;2.15;;;;;;;12.63;56.61;96848.00;6075759;23;20006;-67
2022/11/23 11:29:43;;;;;;;8.05;2.17;;;;;;;12.51;55.75;96848.25;6098749;23;20258;-68
2022/11/23 11:33:01;;;;;;;5.30;2.00;;;;;;;12.55;55.51;96840.88;6099897;23;20017;-69
2022/11/23 11:35:37;;;;;;;5.93;2.10;;;;;;;12.76;55.39;96843.19;6072883;23;20006;-68
2022/11/23 11:38:10;;;;;;;7.35;2.78;;;;;;;12.97;54.75;96840.22;6124029;23;20428;-67
2022/11/23 11:40:54;;;;;;;6.32;2.35;;;;;;;13.17;54.47;96822.44;6098953;23;20016;-67
2022/11/23 11:43:22;;;;;;;6.38;2.22;;;;;;;13.35;53.26;96833.78;6098874;23;20002;-67
2022/11/23 11:45:55;;;;;;;7.18;2.72;;;;;;;13.30;51.82;96823.69;6074507;23;20051;-66
2022/11/23 11:48:27;;;;;;;5.60;2.05;;;;;;;13.43;52.33;96825.09;6075504;23;20376;-66
2022/11/23 11:51:04;;;;;;;6.82;1.90;;;;;;;13.65;52.39;96821.91;6098173;23;20006;-65
2022/11/23 11:53:57;;;;;;;5.28;1.98;;;;;;;13.96;52.20;96822.19;6075671;23;20005;-67
2022/11/23 11:56:37;;;;;;;5.38;2.00;;;;;;;14.27;51.98;96818.97;6078984;23;20001;-67
2022/11/23 11:59:16;;;;;;;5.95;1.80;;;;;;;14.53;51.14;96826.00;6097561;23;20335;-64
2022/11/23 19:55:34;;;;;;;13.50;7.63;;;;;;;5.11;82.49;96952.50;6173947;23;20411;-64
2022/11/23 19:57:59;;;;;;;14.73;7.95;;;;;;;5.18;82.91;96961.56;6211945;23;20013;-64
2022/11/23 20:00:25;;;;;;;15.15;7.97;;;;;;;5.20;82.52;96970.09;6186775;23;20066;-65
2022/11/23 20:02:50;;;;;;;14.75;8.00;;;;;;;5.20;81.64;96975.28;6187034;23;20640;-65
2022/11/23 20:05:15;;;;;;;13.23;7.13;;;;;;;5.22;81.79;96981.19;6212785;23;20011;-65
2022/11/23 20:07:41;;;;;;;15.82;9.32;;;;;;;5.19;81.49;96990.03;6213388;23;20007;-64
2022/11/23 20:10:07;;;;;;;16.17;9.32;;;;;;;5.19;81.87;97005.63;6212173;23;20000;-64
2022/11/23 20:12:32;;;;;;;15.65;9.50;;;;;;;5.17;81.99;97007.50;6186480;23;20469;-65
2022/11/23 20:14:58;;;;;;;13.68;8.35;;;;;;;5.14;81.69;97018.09;6186091;23;20721;-65
2022/11/23 20:17:23;;;;;;;15.38;9.05;;;;;;;5.13;82.29;97013.84;6213377;23;20051;-65
2022/11/23 20:19:49;;;;;;;14.38;8.43;;;;;;;5.14;82.09;97018.09;6162016;23;20009;-65
2022/11/23 20:22:14;;;;;;;12.98;7.82;;;;;;;5.15;82.80;97030.16;6213257;23;20536;-66
2022/11/23 20:24:39;;;;;;;14.88;7.95;;;;;;;5.20;83.07;97037.69;6185646;23;20011;-66
2022/11/23 20:27:05;;;;;;;14.35;8.23;;;;;;;5.22;83.39;97035.78;6186543;23;20005;-65
2022/11/23 20:29:30;;;;;;;13.32;7.85;;;;;;;5.24;83.52;97042.56;6211917;23;19996;-65
2022/11/23 20:31:55;;;;;;;14.63;7.90;;;;;;;5.26;83.80;97037.25;6213322;23;20426;-65
2022/11/23 20:34:21;;;;;;;13.43;7.95;;;;;;;5.29;83.42;97037.06;6212587;23;20023;-66
2022/11/23 20:36:47;;;;;;;15.25;7.80;;;;;;;5.29;83.81;97039.66;6187322;23;20011;-66
2022/11/23 20:39:13;;;;;;;14.38;7.78;;;;;;;5.31;84.28;97050.81;6212491;23;20019;-65
2022/11/23 20:41:39;;;;;;;13.70;8.02;;;;;;;5.34;84.90;97054.97;6185615;23;20087;-65
2022/11/23 20:44:11;;;;;;;14.30;7.65;;;;;;;5.34;84.87;97058.41;6186322;23;20054;-64
2022/11/23 20:46:37;;;;;;;14.23;7.82;;;;;;;5.38;85.22;97056.44;6186745;23;20027;-64
2022/11/23 20:49:02;;;;;;;17.38;8.25;;;;;;;5.41;84.77;97067.47;6185745;23;20431;-64
2022/11/23 20:51:28;;;;;;;15.65;9.00;;;;;;;5.43;85.31;97069.94;6185727;23;20000;-65
2022/11/23 20:53:53;;;;;;;22.23;13.02;;;;;;;5.40;84.92;97068.41;6185339;23;20363;-64
2022/11/23 20:56:19;;;;;;;16.77;10.25;;;;;;;5.44;85.18;97069.03;6185176;23;20004;-65
2022/11/23 20:58:44;;;;;;;18.42;9.88;;;;;;;5.43;84.87;97070.78;6185482;23;20011;-65
2022/11/23 21:01:15;;;;;;;15.63;9.35;;;;;;;5.43;85.04;97070.78;6185259;23;20011;-65
2022/11/23 21:03:41;;;;;;;15.23;8.95;;;;;;;5.46;85.32;97075.78;6160941;23;20445;-65
2022/11/23 21:06:09;;;;;;;17.20;9.25;;;;;;;5.47;85.33;97072.28;6186803;23;20003;-65
2022/11/23 21:08:34;;;;;;;14.82;9.18;;;;;;;5.44;85.26;97072.47;6213022;23;20000;-65
2022/11/23 21:14:10;;;;;;;13.98;7.80;;;;;;;5.47;85.68;97077.47;6191205;23;20062;-65
